Time;durP1;ratioP1;P1;durP2;ratioP2;P2;SDS_P1;SDS_P2;PMS_P1;PMS_P2;Temp;Humidity;BMP_temperature;BMP_pressure;BME280_temperature;BME280_humidity;BME280_pressure;Samples;Min_cycle;Max_cycle;Signal;HPM_P1;HPM_P2
2022/01/12 00:00:58;;;;;;;45.60;23.42;;;0.60;99.90;;;;;;5100338;28;20062;-83
2022/01/12 00:03:25;;;;;;;36.58;21.15;;;0.70;99.90;;;;;;5080783;28;20115;-82
2022/01/12 00:05:53;;;;;;;37.63;20.45;;;0.70;99.90;;;;;;5081234;28;20040;-83
2022/01/12 00:08:21;;;;;;;42.10;22.27;;;0.70;99.90;;;;;;5098403;28;20063;-81
2022/01/12 00:10:48;;;;;;;41.50;21.52;;;0.70;99.90;;;;;;5114756;28;20055;-83
2022/01/12 00:13:17;;;;;;;47.10;25.42;;;0.80;99.90;;;;;;5100520;28;20115;-83
2022/01/12 00:15:45;;;;;;;56.83;29.17;;;0.80;99.90;;;;;;5106230;28;20406;-82
2022/01/12 00:18:12;;;;;;;45.85;25.08;;;0.80;99.90;;;;;;5094909;28;20040;-85
2022/01/12 00:20:40;;;;;;;44.50;24.33;;;1.00;99.90;;;;;;5104088;28;20067;-83
2022/01/12 00:23:07;;;;;;;39.50;21.58;;;1.10;99.90;;;;;;5117100;28;20042;-82
2022/01/12 00:25:55;;;;;;;36.58;20.13;;;1.10;99.90;;;;;;5110116;28;20051;-85
2022/01/12 00:33:55;;;;;;;32.38;18.30;;;1.20;99.90;;;;;;5079762;28;20093;-84
2022/01/12 00:36:23;;;;;;;32.78;18.10;;;1.20;99.90;;;;;;5080127;28;20127;-82
2022/01/12 00:38:51;;;;;;;33.75;18.25;;;1.20;99.90;;;;;;5073391;28;20122;-81
2022/01/12 00:41:19;;;;;;;35.03;20.02;;;1.10;99.90;;;;;;5083993;28;20560;-82
2022/01/12 00:43:56;;;;;;;32.25;18.48;;;1.20;99.90;;;;;;5068564;28;20048;-83
2022/01/12 00:46:24;;;;;;;33.65;19.98;;;1.20;99.90;;;;;;5082613;28;20506;-84
2022/01/12 00:48:54;;;;;;;38.63;20.60;;;1.20;99.90;;;;;;5100584;28;20074;-82
2022/01/12 00:51:22;;;;;;;32.17;18.67;;;1.10;99.90;;;;;;5092600;28;20044;-83
2022/01/12 00:53:50;;;;;;;33.58;17.50;;;1.00;99.90;;;;;;5098959;28;20048;-84
2022/01/12 00:56:17;;;;;;;30.13;17.23;;;0.90;99.90;;;;;;5100400;28;20068;-84
2022/01/12 00:58:45;;;;;;;25.83;15.02;;;0.70;99.90;;;;;;5083054;28;20044;-83
2022/01/12 01:01:14;;;;;;;26.50;16.23;;;0.60;99.90;;;;;;5083680;28;20048;-83
2022/01/12 01:03:41;;;;;;;28.30;16.75;;;0.40;99.90;;;;;;5102305;28;20078;-83
2022/01/12 01:06:11;;;;;;;27.65;16.80;;;0.50;99.90;;;;;;5073261;28;20488;-84
2022/01/12 01:08:39;;;;;;;28.33;16.58;;;0.60;99.90;;;;;;5072072;28;20032;-84
2022/01/12 01:11:07;;;;;;;24.48;15.00;;;0.60;99.90;;;;;;5075917;28;20079;-84
2022/01/12 01:13:42;;;;;;;25.42;16.30;;;0.50;99.90;;;;;;5087474;28;20055;-84
2022/01/12 01:16:17;;;;;;;23.27;15.30;;;0.50;99.90;;;;;;5088600;28;20044;-83
2022/01/12 01:27:19;;;;;;;26.50;14.43;;;0.30;99.90;;;;;;5045692;28;20051;-83
2022/01/12 01:29:47;;;;;;;23.00;14.80;;;0.30;99.90;;;;;;5075611;28;20315;-83
2022/01/12 01:32:15;;;;;;;19.13;13.45;;;0.40;99.90;;;;;;5110101;28;20533;-83
2022/01/12 01:34:47;;;;;;;18.52;11.13;;;0.30;99.90;;;;;;5096809;28;20048;-81
2022/01/12 01:37:16;;;;;;;18.05;11.93;;;0.40;99.90;;;;;;5097671;28;20040;-81
2022/01/12 01:39:46;;;;;;;18.58;12.45;;;0.20;99.90;;;;;;5098634;28;20040;-82
2022/01/12 01:42:19;;;;;;;17.10;11.82;;;0.20;99.90;;;;;;5100647;28;20044;-80
2022/01/12 01:53:21;;;;;;;20.08;13.73;;;0.00;99.90;;;;;;5118819;28;20092;-78
2022/01/12 01:55:52;;;;;;;19.08;12.90;;;0.00;99.90;;;;;;5099362;28;20074;-80
2022/01/12 01:58:21;;;;;;;16.48;11.18;;;0.10;99.90;;;;;;5098824;28;20044;-81
2022/01/12 02:00:52;;;;;;;19.38;12.52;;;0.10;99.90;;;;;;5099203;28;20055;-82
2022/01/12 02:03:26;;;;;;;17.92;11.85;;;0.00;99.90;;;;;;5094947;28;20054;-78
2022/01/12 02:05:59;;;;;;;16.55;11.93;;;0.00;99.90;;;;;;5095390;28;20052;-84
2022/01/12 02:08:27;;;;;;;16.52;10.13;;;0.00;99.90;;;;;;5085233;28;20071;-83
2022/01/12 02:11:04;;;;;;;15.25;10.48;;;0.00;99.90;;;;;;5082584;28;20051;-83
2022/01/12 02:13:34;;;;;;;15.32;10.52;;;0.00;99.90;;;;;;5079938;28;20045;-84
2022/01/12 02:16:01;;;;;;;16.98;11.63;;;-0.20;99.90;;;;;;5078484;28;20098;-83
2022/01/12 02:18:53;;;;;;;18.60;11.77;;;-0.30;99.90;;;;;;5082531;28;20067;-81
2022/01/12 02:40:47;;;;;;;18.38;10.60;;;-0.40;99.90;;;;;;5077303;28;20045;-82
2022/01/12 02:43:19;;;;;;;17.02;10.40;;;-0.20;99.90;;;;;;5079947;28;20051;-83
2022/01/12 02:51:29;;;;;;;18.63;10.70;;;0.10;99.90;;;;;;5056212;28;20045;-83
2022/01/12 02:53:56;;;;;;;16.67;9.90;;;0.20;99.90;;;;;;5062227;28;20315;-85
2022/01/12 02:56:27;;;;;;;17.15;10.77;;;0.30;99.90;;;;;;5077176;28;20116;-83
2022/01/12 02:58:58;;;;;;;20.02;11.02;;;0.30;99.90;;;;;;5076322;28;20040;-83
2022/01/12 03:04:22;;;;;;;16.33;8.65;;;0.40;99.90;;;;;;5023220;28;20045;-82
2022/01/12 03:06:51;;;;;;;18.63;10.60;;;0.40;99.90;;;;;;5057691;28;20059;-82
2022/01/12 03:09:20;;;;;;;19.48;10.52;;;0.40;99.90;;;;;;5055806;28;20041;-83
2022/01/12 03:11:47;;;;;;;19.58;10.35;;;0.30;99.90;;;;;;5055726;28;20052;-83
2022/01/12 03:14:17;;;;;;;16.58;10.10;;;0.30;99.90;;;;;;5056430;28;20052;-83
2022/01/12 03:16:45;;;;;;;17.02;9.75;;;0.20;99.90;;;;;;5056046;28;20045;-84
2022/01/12 03:19:21;;;;;;;15.00;9.60;;;0.20;99.90;;;;;;5057440;28;20037;-83
2022/01/12 03:21:49;;;;;;;14.07;8.65;;;0.20;99.90;;;;;;5066830;28;20045;-82
2022/01/12 03:24:19;;;;;;;16.30;9.68;;;0.10;99.90;;;;;;5061470;28;20045;-82
2022/01/12 03:26:49;;;;;;;15.90;9.80;;;0.00;99.90;;;;;;5056439;28;20579;-83
2022/01/12 03:29:17;;;;;;;14.95;9.10;;;0.00;99.90;;;;;;5061184;28;20045;-82
2022/01/12 03:31:45;;;;;;;16.45;9.50;;;0.00;99.90;;;;;;5066093;28;20041;-84
2022/01/12 03:34:24;;;;;;;18.67;10.63;;;0.00;99.90;;;;;;5069149;28;20120;-82
2022/01/12 03:37:16;;;;;;;17.08;9.35;;;0.00;99.90;;;;;;5069650;28;20080;-81
2022/01/12 03:39:45;;;;;;;15.07;9.00;;;0.10;99.90;;;;;;5077054;28;20104;-81
2022/01/12 03:42:13;;;;;;;15.52;8.45;;;0.10;99.90;;;;;;5077175;28;20107;-83
2022/01/12 03:44:41;;;;;;;12.82;8.32;;;0.10;99.90;;;;;;5077471;28;20053;-78
2022/01/12 03:47:08;;;;;;;12.68;7.88;;;0.10;99.90;;;;;;5076474;28;20045;-80
2022/01/12 03:49:36;;;;;;;16.65;9.20;;;0.10;99.90;;;;;;5073443;28;20029;-82
2022/01/12 03:52:04;;;;;;;16.88;10.23;;;0.10;99.90;;;;;;5072758;28;20049;-81
2022/01/12 03:54:32;;;;;;;14.13;8.48;;;0.00;99.90;;;;;;5068445;28;20049;-81
2022/01/12 03:57:01;;;;;;;17.23;9.20;;;0.00;99.90;;;;;;5068597;28;20069;-83
2022/01/12 03:59:29;;;;;;;15.10;8.93;;;0.00;99.90;;;;;;5069601;28;20043;-83
2022/01/12 04:01:56;;;;;;;17.90;9.45;;;0.00;99.90;;;;;;5056150;28;20137;-82
2022/01/12 04:04:32;;;;;;;15.93;8.65;;;0.00;99.90;;;;;;5075303;28;20428;-84
2022/01/12 04:09:46;;;;;;;14.63;7.60;;;0.00;99.90;;;;;;5076398;28;20052;-83
2022/01/12 04:12:16;;;;;;;17.20;8.52;;;0.00;99.90;;;;;;5075587;28;20503;-83
2022/01/12 04:14:44;;;;;;;23.00;11.93;;;0.00;99.90;;;;;;5077333;28;20040;-79
2022/01/12 04:17:12;;;;;;;16.23;9.05;;;0.10;99.90;;;;;;5081428;28;20044;-82
2022/01/12 04:19:43;;;;;;;15.80;8.43;;;0.10;99.90;;;;;;5085060;28;20067;-79
2022/01/12 04:23:16;;;;;;;17.65;8.70;;;-0.10;99.90;;;;;;5085827;28;20102;-82
2022/01/12 04:25:08;;;;;;;15.73;8.13;;;-0.10;99.90;;;;;;5093917;28;20066;-82
2022/01/12 04:27:37;;;;;;;15.02;8.40;;;-0.20;99.90;;;;;;5093045;28;20078;-82
2022/01/12 04:30:05;;;;;;;15.18;7.95;;;-0.10;99.90;;;;;;5078860;28;20047;-83
2022/01/12 04:32:36;;;;;;;21.30;9.07;;;0.00;99.90;;;;;;5081059;28;20052;-82
2022/01/12 04:35:04;;;;;;;20.70;9.48;;;0.00;99.90;;;;;;5080133;28;20099;-83
2022/01/12 04:37:32;;;;;;;27.38;11.02;;;0.00;99.90;;;;;;5076813;28;20052;-83
2022/01/12 04:39:59;;;;;;;31.00;12.40;;;0.20;99.90;;;;;;5085240;28;20099;-83
2022/01/12 04:42:27;;;;;;;32.92;12.98;;;0.20;99.90;;;;;;5087018;28;20048;-81
2022/01/12 04:45:02;;;;;;;20.52;10.65;;;0.10;99.90;;;;;;5086498;28;20044;-81
2022/01/12 04:47:47;;;;;;;20.25;10.45;;;0.10;99.90;;;;;;5089086;28;20053;-83
2022/01/12 04:50:14;;;;;;;15.45;8.13;;;-0.10;99.90;;;;;;5092547;28;20066;-80
2022/01/12 04:52:42;;;;;;;14.55;8.20;;;-0.10;99.90;;;;;;5090688;28;20116;-83
2022/01/12 04:55:11;;;;;;;15.07;8.43;;;-0.30;99.90;;;;;;5092134;28;20056;-84
2022/01/12 04:57:38;;;;;;;11.45;7.32;;;-0.30;99.90;;;;;;5094108;28;20045;-81
2022/01/12 05:00:14;;;;;;;12.77;8.10;;;-0.20;99.90;;;;;;5090613;28;20044;-80
2022/01/12 05:08:18;;;;;;;17.85;9.38;;;-0.10;99.90;;;;;;5088298;28;20059;-81
2022/01/12 05:13:32;;;;;;;17.17;9.77;;;-0.10;99.90;;;;;;5081966;28;20037;-81
2022/01/12 05:16:03;;;;;;;22.10;11.55;;;-0.20;99.90;;;;;;5074438;28;20099;-82
2022/01/12 05:18:34;;;;;;;27.90;14.38;;;-0.30;99.90;;;;;;5080074;28;20037;-81
2022/01/12 05:21:02;;;;;;;19.30;10.50;;;-0.30;99.90;;;;;;5092982;28;20033;-80
2022/01/12 05:23:31;;;;;;;17.55;10.43;;;-0.40;99.90;;;;;;5094080;28;20047;-82
2022/01/12 05:25:59;;;;;;;36.92;19.52;;;-0.40;99.90;;;;;;5089566;28;20452;-81
2022/01/12 05:28:28;;;;;;;28.95;14.98;;;-0.40;99.90;;;;;;5086713;28;20063;-80
2022/01/12 05:30:56;;;;;;;20.58;11.60;;;-0.40;99.90;;;;;;5093757;28;20055;-80
2022/01/12 05:33:28;;;;;;;17.92;10.27;;;-0.30;99.90;;;;;;5095234;28;20048;-80
2022/01/12 05:36:00;;;;;;;22.40;11.30;;;-0.50;99.90;;;;;;5081905;28;20056;-81
2022/01/12 05:38:29;;;;;;;23.05;11.27;;;-0.50;99.90;;;;;;5083802;28;20040;-84
2022/01/12 05:41:00;;;;;;;22.38;10.68;;;-0.50;99.90;;;;;;5094025;28;20040;-83
2022/01/12 05:43:30;;;;;;;21.38;9.93;;;-0.50;99.90;;;;;;5094107;28;20048;-83
2022/01/12 05:46:07;;;;;;;18.67;9.82;;;-0.80;99.90;;;;;;5101879;28;20059;-82
2022/01/12 05:51:22;;;;;;;20.00;10.77;;;-0.70;99.90;;;;;;5100582;28;20041;-83
2022/01/12 05:53:49;;;;;;;19.95;11.07;;;-0.80;99.90;;;;;;5086431;28;20048;-83
2022/01/12 05:56:17;;;;;;;21.63;11.52;;;-0.70;99.90;;;;;;5086169;28;20048;-83
2022/01/12 05:58:45;;;;;;;28.65;14.63;;;-0.70;99.90;;;;;;5086909;28;20067;-81
2022/01/12 06:01:12;;;;;;;21.10;11.50;;;-0.60;99.90;;;;;;5092787;28;20095;-82
2022/01/12 06:03:42;;;;;;;22.67;12.20;;;-0.60;99.90;;;;;;5094252;28;20064;-81
2022/01/12 06:06:10;;;;;;;29.45;15.93;;;-0.60;99.90;;;;;;5094215;28;20076;-80
2022/01/12 06:08:37;;;;;;;32.70;16.75;;;-0.50;99.90;;;;;;5091942;28;20189;-81
2022/01/12 06:11:06;;;;;;;31.63;15.55;;;-0.50;99.90;;;;;;5090078;28;20050;-81
2022/01/12 06:13:34;;;;;;;38.92;16.95;;;-0.50;99.90;;;;;;5080343;28;20048;-81
2022/01/12 06:16:01;;;;;;;29.70;14.80;;;-0.60;99.90;;;;;;5092427;28;20147;-81
2022/01/12 06:18:31;;;;;;;36.03;17.65;;;-0.50;99.90;;;;;;5090097;28;20068;-82
2022/01/12 06:21:00;;;;;;;53.42;22.27;;;-0.50;99.90;;;;;;5084134;28;20076;-82
2022/01/12 06:24:03;;;;;;;43.45;19.58;;;-0.50;99.90;;;;;;5070567;28;20053;-82
2022/01/12 06:26:31;;;;;;;55.47;24.40;;;-0.50;99.90;;;;;;5078113;28;20045;-82
2022/01/12 06:31:46;;;;;;;40.13;17.77;;;-0.40;99.90;;;;;;5083614;28;20033;-80
2022/01/12 06:34:14;;;;;;;54.55;24.58;;;-0.50;99.90;;;;;;5083146;28;20053;-82
2022/01/12 06:36:43;;;;;;;53.17;24.02;;;-0.50;99.90;;;;;;5082782;28;20051;-81
2022/01/12 06:39:13;;;;;;;42.30;19.75;;;-0.40;99.90;;;;;;5095288;28;20054;-82
2022/01/12 06:41:42;;;;;;;41.97;19.27;;;-0.30;99.90;;;;;;5095340;28;20032;-81
2022/01/12 06:44:13;;;;;;;50.90;23.38;;;-0.20;99.90;;;;;;5094016;28;20458;-81
2022/01/12 06:46:42;;;;;;;49.58;23.02;;;-0.10;99.90;;;;;;5093428;28;20060;-82
2022/01/12 06:49:11;;;;;;;36.05;19.27;;;0.00;99.90;;;;;;5092701;28;20040;-81
2022/01/12 06:51:43;;;;;;;31.20;15.02;;;0.00;99.90;;;;;;5091660;28;20044;-82
2022/01/12 06:54:12;;;;;;;32.10;16.88;;;0.00;99.90;;;;;;5090688;28;20082;-82
2022/01/12 06:56:40;;;;;;;35.97;17.15;;;-0.10;99.90;;;;;;5088690;28;20108;-82
2022/01/12 06:59:08;;;;;;;36.03;16.67;;;-0.10;99.90;;;;;;5087439;28;20043;-83
2022/01/12 07:01:36;;;;;;;27.38;13.85;;;0.00;99.90;;;;;;5089222;28;20057;-81
2022/01/12 07:04:04;;;;;;;28.80;14.85;;;0.10;99.90;;;;;;5089658;28;20048;-82
2022/01/12 07:06:34;;;;;;;30.55;15.30;;;0.10;99.90;;;;;;5087446;28;20040;-83
2022/01/12 07:09:03;;;;;;;29.33;14.15;;;0.20;99.90;;;;;;5088016;28;20044;-80
2022/01/12 07:11:54;;;;;;;27.73;14.98;;;0.20;99.90;;;;;;5080068;28;20053;-82
2022/01/12 07:14:28;;;;;;;25.80;14.18;;;0.20;99.90;;;;;;5090471;28;20028;-81
2022/01/12 07:16:57;;;;;;;30.88;14.40;;;0.30;99.90;;;;;;5086398;28;20064;-81
2022/01/12 07:19:25;;;;;;;24.85;12.93;;;0.30;99.90;;;;;;5087116;28;20170;-82
2022/01/12 07:21:53;;;;;;;23.05;12.65;;;0.30;99.90;;;;;;5091455;28;20039;-83
2022/01/12 07:24:22;;;;;;;22.98;12.25;;;0.40;99.90;;;;;;5095249;28;20028;-82
2022/01/12 07:26:49;;;;;;;23.25;12.57;;;0.40;99.90;;;;;;5098003;28;20029;-81
2022/01/12 07:29:17;;;;;;;21.15;11.30;;;0.50;99.90;;;;;;5097880;28;20062;-82
2022/01/12 07:31:46;;;;;;;29.63;15.88;;;0.50;99.90;;;;;;5096301;28;20052;-83
2022/01/12 07:34:14;;;;;;;43.65;20.63;;;0.50;99.90;;;;;;5097180;28;20048;-82
2022/01/12 07:36:42;;;;;;;37.38;19.42;;;0.50;99.90;;;;;;5096462;28;20044;-82
2022/01/12 07:39:09;;;;;;;51.90;24.75;;;0.50;99.90;;;;;;5092999;28;20055;-83
2022/01/12 07:41:38;;;;;;;41.38;22.63;;;0.60;99.90;;;;;;5089501;28;20041;-82
2022/01/12 07:44:07;;;;;;;41.75;21.20;;;0.60;99.90;;;;;;5092319;28;20056;-82
2022/01/12 07:46:34;;;;;;;41.13;21.80;;;0.60;99.90;;;;;;5091762;28;20070;-82
2022/01/12 07:49:02;;;;;;;39.97;22.35;;;0.60;99.90;;;;;;5090351;28;20060;-81
2022/01/12 07:51:30;;;;;;;45.53;26.83;;;0.70;99.90;;;;;;5088638;28;20045;-83
2022/01/12 07:53:57;;;;;;;41.90;23.80;;;0.80;99.90;;;;;;5094393;28;20040;-81
2022/01/12 07:56:25;;;;;;;46.38;24.83;;;0.90;99.90;;;;;;5091890;28;20051;-82
2022/01/12 07:58:54;;;;;;;45.67;25.05;;;0.90;99.90;;;;;;5089792;28;20082;-81
2022/01/12 08:01:21;;;;;;;44.05;22.75;;;1.00;99.90;;;;;;5086136;28;20056;-82
2022/01/12 08:03:49;;;;;;;46.95;24.27;;;1.00;99.90;;;;;;5086396;28;20048;-81
2022/01/12 08:06:16;;;;;;;47.30;25.33;;;1.00;99.90;;;;;;5089072;28;20052;-82
2022/01/12 08:08:44;;;;;;;44.58;22.08;;;1.10;99.90;;;;;;5092275;28;20052;-82
2022/01/12 08:11:11;;;;;;;59.22;22.63;;;1.00;99.90;;;;;;5090147;28;20057;-82
2022/01/12 08:13:40;;;;;;;31.02;17.60;;;1.00;99.90;;;;;;5090996;28;20070;-82
2022/01/12 08:16:08;;;;;;;31.45;17.23;;;0.90;99.90;;;;;;5085252;28;20052;-82
2022/01/12 08:18:36;;;;;;;28.48;16.58;;;0.90;99.90;;;;;;5081352;28;20507;-82
2022/01/12 08:21:06;;;;;;;31.70;18.10;;;1.00;99.90;;;;;;5085977;28;20458;-83
2022/01/12 08:23:33;;;;;;;37.25;18.88;;;1.20;99.90;;;;;;5083179;28;20052;-83
2022/01/12 08:26:01;;;;;;;28.85;16.30;;;1.20;99.90;;;;;;5082341;28;20577;-81
2022/01/12 08:28:28;;;;;;;21.63;12.52;;;1.50;99.90;;;;;;5084105;28;20116;-82
2022/01/12 08:30:56;;;;;;;29.92;16.35;;;1.50;99.90;;;;;;5083928;28;20064;-81
2022/01/12 08:33:25;;;;;;;29.73;16.70;;;1.40;99.90;;;;;;5089889;28;20071;-82
2022/01/12 08:35:54;;;;;;;37.63;20.52;;;1.40;99.90;;;;;;5084249;28;20132;-82
2022/01/12 08:38:21;;;;;;;41.95;23.23;;;1.30;99.90;;;;;;5090846;28;20071;-82
2022/01/12 08:40:49;;;;;;;40.55;22.75;;;1.30;99.90;;;;;;5090669;28;20095;-83
2022/01/12 08:43:16;;;;;;;35.83;19.42;;;1.40;99.90;;;;;;5093811;28;20032;-83
2022/01/12 08:45:44;;;;;;;28.27;17.13;;;1.50;99.90;;;;;;5091902;28;20052;-81
2022/01/12 08:48:11;;;;;;;29.90;16.80;;;1.50;99.90;;;;;;5089346;28;20049;-81
2022/01/12 08:50:40;;;;;;;32.38;17.70;;;1.50;99.90;;;;;;5087134;28;20044;-83
2022/01/12 08:53:08;;;;;;;28.95;17.42;;;1.60;99.90;;;;;;5086168;28;20052;-82
2022/01/12 08:55:35;;;;;;;27.20;15.88;;;1.80;99.90;;;;;;5085397;28;20064;-82
2022/01/12 08:58:03;;;;;;;24.80;14.45;;;1.80;99.90;;;;;;5085341;28;20082;-82
2022/01/12 09:00:31;;;;;;;26.65;16.25;;;1.80;99.90;;;;;;5087418;28;20124;-82
2022/01/12 09:02:58;;;;;;;22.88;14.65;;;2.00;99.90;;;;;;5092638;28;20511;-82
2022/01/12 09:05:26;;;;;;;26.25;14.55;;;2.10;99.90;;;;;;5093687;28;20064;-81
2022/01/12 09:07:55;;;;;;;25.48;14.20;;;2.20;99.90;;;;;;5096519;28;20048;-82
2022/01/12 09:10:23;;;;;;;28.70;15.77;;;2.30;99.90;;;;;;5095863;28;20048;-82
2022/01/12 09:12:51;;;;;;;29.33;15.05;;;2.20;99.90;;;;;;5099814;28;20499;-81
2022/01/12 09:15:22;;;;;;;24.55;14.40;;;2.30;99.90;;;;;;5096042;28;20048;-83
2022/01/12 09:17:49;;;;;;;24.08;13.98;;;2.20;99.90;;;;;;5090895;28;20044;-82
2022/01/12 09:20:17;;;;;;;26.70;15.20;;;2.00;99.90;;;;;;5094329;28;20129;-83
2022/01/12 09:22:44;;;;;;;26.67;15.93;;;2.10;99.90;;;;;;5092443;28;20049;-82
2022/01/12 09:25:14;;;;;;;27.92;15.93;;;2.10;99.90;;;;;;5093430;28;20044;-82
2022/01/12 09:27:42;;;;;;;23.45;14.90;;;2.30;99.90;;;;;;5094732;28;20060;-82
2022/01/12 09:30:12;;;;;;;25.58;15.50;;;2.50;99.90;;;;;;5087134;28;20051;-83
2022/01/12 09:32:39;;;;;;;23.98;13.50;;;2.60;99.90;;;;;;5090938;28;20040;-81
2022/01/12 09:35:08;;;;;;;23.83;13.88;;;2.20;99.90;;;;;;5087915;28;20135;-82
2022/01/12 09:37:36;;;;;;;28.45;16.63;;;2.20;99.90;;;;;;5088144;28;20408;-82
2022/01/12 09:40:04;;;;;;;29.23;16.02;;;2.30;99.90;;;;;;5090428;28;20049;-83
2022/01/12 09:42:33;;;;;;;24.58;14.35;;;2.30;99.90;;;;;;5093405;28;20040;-82
2022/01/12 09:45:03;;;;;;;24.65;14.25;;;2.30;99.90;;;;;;5093693;28;20045;-82
2022/01/12 09:47:30;;;;;;;26.13;14.88;;;2.30;99.90;;;;;;5094616;28;20068;-81
2022/01/12 09:49:58;;;;;;;25.52;14.18;;;2.20;99.90;;;;;;5092840;28;20108;-82
2022/01/12 09:52:25;;;;;;;25.40;14.90;;;2.10;99.90;;;;;;5094274;28;20100;-83
2022/01/12 09:54:53;;;;;;;24.85;13.88;;;1.80;99.90;;;;;;5090790;28;20047;-82
2022/01/12 09:57:21;;;;;;;23.88;13.95;;;1.80;99.90;;;;;;5092404;28;20102;-82
2022/01/12 09:59:50;;;;;;;33.42;19.48;;;1.90;99.90;;;;;;5087958;28;20116;-82
2022/01/12 10:02:19;;;;;;;49.67;26.20;;;2.20;99.90;;;;;;5096990;28;20048;-81
2022/01/12 10:04:46;;;;;;;34.35;18.48;;;2.20;99.90;;;;;;5076344;28;20120;-81
2022/01/12 10:07:14;;;;;;;29.45;16.88;;;2.20;99.90;;;;;;5077429;28;20029;-81
2022/01/12 10:09:44;;;;;;;29.65;15.27;;;2.10;99.90;;;;;;5075233;28;20102;-81
2022/01/12 10:12:14;;;;;;;31.65;15.93;;;1.80;99.90;;;;;;5073189;28;20033;-81
2022/01/12 10:14:46;;;;;;;29.80;17.58;;;1.60;99.90;;;;;;5082849;28;20041;-82
2022/01/12 10:17:15;;;;;;;32.58;19.27;;;1.80;99.90;;;;;;5065777;28;20057;-84
2022/01/12 10:19:43;;;;;;;32.63;17.77;;;2.00;99.90;;;;;;5064339;28;20033;-83
2022/01/12 10:22:15;;;;;;;26.45;15.80;;;2.20;99.90;;;;;;5056188;28;20052;-83
2022/01/12 10:24:44;;;;;;;31.58;17.52;;;2.40;99.90;;;;;;5057612;28;20044;-82
2022/01/12 10:27:14;;;;;;;33.30;18.40;;;2.70;99.90;;;;;;5070032;28;20047;-82
2022/01/12 10:29:42;;;;;;;29.27;17.27;;;2.70;99.90;;;;;;5065013;28;20041;-83
2022/01/12 10:32:10;;;;;;;27.52;16.98;;;2.60;99.90;;;;;;5053654;28;20037;-82
2022/01/12 10:34:42;;;;;;;28.08;16.20;;;2.70;99.90;;;;;;5064460;28;20128;-81
2022/01/12 10:37:13;;;;;;;29.13;17.48;;;2.60;99.90;;;;;;5041662;28;20057;-82
2022/01/12 10:39:41;;;;;;;32.85;18.73;;;2.70;99.90;;;;;;5041702;28;20090;-83
2022/01/12 10:42:11;;;;;;;38.90;19.52;;;2.80;99.90;;;;;;5044425;28;20519;-83
2022/01/12 10:44:40;;;;;;;31.05;18.50;;;2.60;99.90;;;;;;5056746;28;20456;-81
2022/01/12 10:47:10;;;;;;;36.80;20.15;;;2.50;99.90;;;;;;5058494;28;20045;-81
2022/01/12 10:49:41;;;;;;;34.53;20.73;;;2.30;99.90;;;;;;5054041;28;20509;-82
2022/01/12 10:52:10;;;;;;;23.55;13.45;;;2.10;99.90;;;;;;5063220;28;20098;-82
2022/01/12 10:54:46;;;;;;;20.55;12.05;;;2.00;99.90;;;;;;5064714;28;20073;-81
2022/01/12 10:57:20;;;;;;;23.45;13.40;;;2.00;99.90;;;;;;5047258;28;20424;-81
2022/01/12 11:00:18;;;;;;;42.55;22.80;;;2.00;99.90;;;;;;5045240;28;20045;-83
2022/01/12 11:02:47;;;;;;;35.63;20.45;;;2.00;99.90;;;;;;5064501;28;20037;-82
2022/01/12 11:05:17;;;;;;;28.38;16.50;;;2.00;99.90;;;;;;5081227;28;20040;-80
2022/01/12 11:07:45;;;;;;;30.92;17.88;;;2.00;99.90;;;;;;5080578;28;20052;-83
2022/01/12 11:10:13;;;;;;;31.80;18.48;;;2.00;99.90;;;;;;5074378;28;20068;-83
2022/01/12 11:12:41;;;;;;;33.80;21.55;;;2.10;99.90;;;;;;5066246;28;20068;-82
2022/01/12 11:15:10;;;;;;;35.53;20.02;;;2.30;99.90;;;;;;5077698;28;20037;-83
2022/01/12 11:17:39;;;;;;;36.88;20.58;;;2.40;99.90;;;;;;5082691;28;20043;-82
2022/01/12 11:20:12;;;;;;;35.30;19.52;;;2.30;99.90;;;;;;5077021;28;20063;-81
2022/01/12 11:22:55;;;;;;;31.98;18.40;;;2.20;99.90;;;;;;5081281;28;20048;-82
2022/01/12 11:25:25;;;;;;;29.05;16.27;;;2.20;99.90;;;;;;5077604;28;20049;-81
2022/01/12 11:28:09;;;;;;;31.75;18.38;;;2.10;99.90;;;;;;5082951;28;20054;-82
2022/01/12 11:30:38;;;;;;;33.20;18.05;;;2.20;99.90;;;;;;5074091;28;20044;-82
2022/01/12 11:33:09;;;;;;;30.85;16.17;;;2.30;99.90;;;;;;5080510;28;20045;-81
2022/01/12 11:35:40;;;;;;;29.30;15.82;;;2.50;99.90;;;;;;5080203;28;20053;-82
2022/01/12 11:38:20;;;;;;;23.83;13.80;;;2.70;99.90;;;;;;5077390;28;20033;-83
2022/01/12 11:40:48;;;;;;;22.30;12.88;;;2.90;99.90;;;;;;5088136;28;20052;-83
2022/01/12 11:43:21;;;;;;;28.52;16.70;;;3.00;99.90;;;;;;5086790;28;20040;-83
2022/01/12 11:46:02;;;;;;;33.28;18.35;;;3.20;99.90;;;;;;5089293;28;20491;-83
2022/01/12 11:48:31;;;;;;;36.15;20.05;;;2.90;99.90;;;;;;5086348;28;20201;-83
2022/01/12 11:50:59;;;;;;;35.10;20.63;;;2.80;99.90;;;;;;5094442;28;20055;-83
2022/01/12 11:53:31;;;;;;;33.50;20.33;;;2.70;99.90;;;;;;5086732;28;20048;-83
2022/01/12 11:56:15;;;;;;;36.85;20.75;;;2.70;99.90;;;;;;5076653;28;20068;-84
2022/01/12 11:58:57;;;;;;;34.10;20.25;;;2.70;99.90;;;;;;5076601;28;20040;-83
2022/01/12 12:01:25;;;;;;;30.13;17.33;;;3.00;99.90;;;;;;5077820;28;20041;-80
2022/01/12 12:03:57;;;;;;;34.67;18.45;;;3.30;99.90;;;;;;5076302;28;20147;-81
2022/01/12 12:06:25;;;;;;;31.05;17.77;;;3.60;99.90;;;;;;5078813;28;20070;-80
2022/01/12 12:09:02;;;;;;;38.42;21.60;;;3.40;99.90;;;;;;5077913;28;20044;-81
2022/01/12 12:11:31;;;;;;;30.58;17.73;;;3.30;99.90;;;;;;5077661;28;20123;-80
2022/01/12 12:14:06;;;;;;;29.80;17.20;;;3.30;99.90;;;;;;5082568;28;20123;-80
2022/01/12 12:16:35;;;;;;;;;;;2.90;99.90;;;;;;5084461;28;20489;-82
2022/01/12 12:19:04;;;;;;;23.05;13.02;;;2.80;99.90;;;;;;5084751;28;19963;-82
2022/01/12 12:21:33;;;;;;;29.80;17.08;;;3.00;99.90;;;;;;5082331;28;20075;-81
2022/01/12 12:24:13;;;;;;;24.08;13.60;;;3.10;99.90;;;;;;5080430;28;20075;-82
2022/01/12 12:26:47;;;;;;;32.42;16.83;;;2.90;99.90;;;;;;5080395;28;20072;-85
2022/01/12 12:29:17;;;;;;;28.10;16.13;;;2.70;99.90;;;;;;5079700;28;20049;-82
2022/01/12 12:31:49;;;;;;;30.60;16.42;;;2.50;99.90;;;;;;5091307;28;20045;-82
2022/01/12 12:34:16;;;;;;;26.48;16.05;;;2.50;99.90;;;;;;5073648;28;20049;-81
2022/01/12 12:36:44;;;;;;;31.40;16.35;;;2.50;99.90;;;;;;5066727;28;20089;-82
2022/01/12 12:39:15;;;;;;;30.60;17.08;;;2.50;99.90;;;;;;5068492;28;20131;-81
2022/01/12 12:41:45;;;;;;;28.27;16.05;;;2.40;99.90;;;;;;5065636;28;20052;-82
2022/01/12 12:44:23;;;;;;;28.40;16.27;;;2.40;99.90;;;;;;5068048;28;20080;-82
2022/01/12 12:46:53;;;;;;;27.27;15.90;;;2.40;99.90;;;;;;5066882;28;20045;-81
2022/01/12 12:49:21;;;;;;;26.45;14.02;;;2.50;99.90;;;;;;5069820;28;20057;-82
2022/01/12 12:51:48;;;;;;;26.02;15.65;;;2.60;99.90;;;;;;5080780;28;20109;-80
2022/01/12 12:54:18;;;;;;;27.65;16.25;;;2.70;99.90;;;;;;5088375;28;20044;-79
2022/01/12 12:56:50;;;;;;;27.23;14.57;;;2.80;99.90;;;;;;5081918;28;20039;-81
2022/01/12 12:59:22;;;;;;;30.25;16.25;;;2.90;99.90;;;;;;5085337;28;20074;-80
2022/01/12 13:01:49;;;;;;;23.13;13.88;;;2.90;99.90;;;;;;5086585;28;20045;-81
2022/01/12 13:04:22;;;;;;;27.70;15.77;;;2.90;99.90;;;;;;5105072;28;20067;-81
2022/01/12 13:06:49;;;;;;;36.00;19.70;;;2.70;99.90;;;;;;5111681;28;20071;-81
2022/01/12 13:09:18;;;;;;;32.85;18.40;;;2.50;99.90;;;;;;5111639;28;20048;-80
2022/01/12 13:11:46;;;;;;;32.47;18.65;;;2.60;99.90;;;;;;5111141;28;20048;-79
2022/01/12 13:14:16;;;;;;;31.65;17.60;;;2.60;99.90;;;;;;5110935;28;20515;-81
2022/01/12 13:16:49;;;;;;;27.73;16.42;;;2.70;99.90;;;;;;5092222;28;20127;-80
2022/01/12 13:21:06;;;;;;;28.67;16.17;;;2.70;99.90;;;;;;5111522;28;20052;-81
2022/01/12 13:22:23;;;;;;;25.15;15.15;;;2.60;99.90;;;;;;5085416;28;20096;-80
2022/01/12 13:24:53;;;;;;;27.58;15.25;;;2.50;99.90;;;;;;5083082;28;20051;-79
2022/01/12 13:27:21;;;;;;;30.35;16.13;;;2.60;99.90;;;;;;5082301;28;20108;-81
2022/01/12 13:29:49;;;;;;;29.55;15.95;;;2.70;99.90;;;;;;5084866;28;20048;-80
2022/01/12 13:32:17;;;;;;;34.05;19.08;;;2.60;99.90;;;;;;5084637;28;20044;-79
2022/01/12 13:34:55;;;;;;;42.83;22.50;;;2.50;99.90;;;;;;5081157;28;20495;-82
2022/01/12 13:37:23;;;;;;;33.90;19.33;;;2.50;99.90;;;;;;5100005;28;20165;-83
2022/01/12 13:40:05;;;;;;;32.58;18.42;;;2.40;99.90;;;;;;5082299;28;20067;-83
2022/01/12 13:42:33;;;;;;;31.50;17.20;;;2.40;99.90;;;;;;5082013;28;20051;-83
2022/01/12 13:45:07;;;;;;;29.45;16.58;;;2.40;99.90;;;;;;5101040;28;20394;-82
2022/01/12 13:47:37;;;;;;;26.00;15.40;;;2.40;99.90;;;;;;5088016;28;20063;-81
2022/01/12 13:50:07;;;;;;;30.60;17.67;;;2.20;99.90;;;;;;5104196;28;20120;-79
2022/01/12 13:52:37;;;;;;;40.75;20.38;;;2.10;99.90;;;;;;5081808;28;20047;-77
2022/01/12 13:55:14;;;;;;;42.83;21.88;;;1.80;99.90;;;;;;5081507;28;20055;-80
2022/01/12 13:57:42;;;;;;;33.20;18.15;;;1.70;99.90;;;;;;5099371;28;20047;-80